sensor_id;sensor_type;location;lat;lon;timestamp;pressure;altitude;pressure_sealevel;temperature;humidity
43701;BME280;58809;47.984;7.964;2023-03-02T00:01:57;97067.44;;;1.75;80.72
43701;BME280;58809;47.984;7.964;2023-03-02T00:05:01;97066.84;;;1.61;81.73
43701;BME280;58809;47.984;7.964;2023-03-02T00:08:03;97066.84;;;1.61;81.81
43701;BME280;58809;47.984;7.964;2023-03-02T00:11:05;97054.50;;;1.63;82.06
43701;BME280;58809;47.984;7.964;2023-03-02T00:14:07;97066.31;;;1.67;81.85
43701;BME280;58809;47.984;7.964;2023-03-02T00:17:09;97058.75;;;1.64;82.45
43701;BME280;58809;47.984;7.964;2023-03-02T00:20:11;97057.22;;;1.62;82.42
43701;BME280;58809;47.984;7.964;2023-03-02T00:23:14;97056.44;;;1.50;82.58
43701;BME280;58809;47.984;7.964;2023-03-02T00:26:16;97053.97;;;1.48;82.83
43701;BME280;58809;47.984;7.964;2023-03-02T00:29:18;97053.59;;;1.53;83.61
43701;BME280;58809;47.984;7.964;2023-03-02T00:32:19;97057.88;;;1.54;83.38
43701;BME280;58809;47.984;7.964;2023-03-02T00:35:21;97056.44;;;1.50;83.66
43701;BME280;58809;47.984;7.964;2023-03-02T00:38:22;97047.69;;;1.51;83.99
43701;BME280;58809;47.984;7.964;2023-03-02T00:41:24;97038.03;;;1.42;83.46
43701;BME280;58809;47.984;7.964;2023-03-02T00:44:25;97031.66;;;1.34;84.32
43701;BME280;58809;47.984;7.964;2023-03-02T00:47:28;97034.28;;;1.34;84.86
43701;BME280;58809;47.984;7.964;2023-03-02T00:50:30;97030.00;;;1.33;84.42
43701;BME280;58809;47.984;7.964;2023-03-02T00:53:32;97038.66;;;1.34;84.58
43701;BME280;58809;47.984;7.964;2023-03-02T00:56:34;97029.94;;;1.24;84.86
43701;BME280;58809;47.984;7.964;2023-03-02T00:59:38;97025.44;;;1.26;85.02
43701;BME280;58809;47.984;7.964;2023-03-02T01:02:57;97024.72;;;1.24;84.91
43701;BME280;58809;47.984;7.964;2023-03-02T01:05:59;97016.72;;;1.15;85.22
43701;BME280;58809;47.984;7.964;2023-03-02T01:09:01;97023.53;;;1.07;85.38
43701;BME280;58809;47.984;7.964;2023-03-02T01:12:03;97021.16;;;1.04;85.83
43701;BME280;58809;47.984;7.964;2023-03-02T01:15:07;97017.63;;;1.05;85.73
43701;BME280;58809;47.984;7.964;2023-03-02T01:18:09;97011.56;;;1.04;85.73
43701;BME280;58809;47.984;7.964;2023-03-02T01:21:14;97017.91;;;0.90;85.92
43701;BME280;58809;47.984;7.964;2023-03-02T01:24:16;97014.63;;;0.88;86.32
43701;BME280;58809;47.984;7.964;2023-03-02T01:27:18;97016.25;;;0.89;86.54
43701;BME280;58809;47.984;7.964;2023-03-02T01:30:20;97002.34;;;0.79;86.11
43701;BME280;58809;47.984;7.964;2023-03-02T01:33:21;96996.09;;;0.70;87.02
43701;BME280;58809;47.984;7.964;2023-03-02T01:36:23;96985.09;;;0.67;86.94
43701;BME280;58809;47.984;7.964;2023-03-02T01:39:24;96991.59;;;0.72;87.27
43701;BME280;58809;47.984;7.964;2023-03-02T01:42:26;96985.69;;;0.70;87.28
43701;BME280;58809;47.984;7.964;2023-03-02T01:49:03;96980.50;;;0.59;87.48
43701;BME280;58809;47.984;7.964;2023-03-02T01:52:14;96975.44;;;0.57;87.63
43701;BME280;58809;47.984;7.964;2023-03-02T01:55:21;96962.34;;;0.48;87.74
43701;BME280;58809;47.984;7.964;2023-03-02T01:58:26;96963.91;;;0.39;88.37
43701;BME280;58809;47.984;7.964;2023-03-02T02:01:30;96956.22;;;0.37;88.41
43701;BME280;58809;47.984;7.964;2023-03-02T02:04:34;96967.34;;;0.28;88.56
43701;BME280;58809;47.984;7.964;2023-03-02T02:07:38;96957.44;;;0.22;89.43
43701;BME280;58809;47.984;7.964;2023-03-02T02:10:40;96962.50;;;0.24;89.09
43701;BME280;58809;47.984;7.964;2023-03-02T02:13:42;96957.91;;;0.16;89.51
43701;BME280;58809;47.984;7.964;2023-03-02T02:16:44;96958.41;;;0.10;89.47
43701;BME280;58809;47.984;7.964;2023-03-02T02:26:42;96961.34;;;0.16;90.68
43701;BME280;58809;47.984;7.964;2023-03-02T02:29:48;96967.97;;;0.21;90.29
43701;BME280;58809;47.984;7.964;2023-03-02T02:32:51;96959.91;;;0.35;89.94
43701;BME280;58809;47.984;7.964;2023-03-02T02:35:59;96954.22;;;0.30;89.75
43701;BME280;58809;47.984;7.964;2023-03-02T02:39:05;96965.22;;;0.33;89.94
43701;BME280;58809;47.984;7.964;2023-03-02T02:42:13;96953.25;;;0.31;89.59
43701;BME280;58809;47.984;7.964;2023-03-02T02:45:23;96959.47;;;0.18;89.09
43701;BME280;58809;47.984;7.964;2023-03-02T02:48:27;96964.94;;;0.04;90.08
43701;BME280;58809;47.984;7.964;2023-03-02T02:51:31;96966.22;;;0.10;91.30
43701;BME280;58809;47.984;7.964;2023-03-02T02:54:35;96966.94;;;0.12;90.88
43701;BME280;58809;47.984;7.964;2023-03-02T02:57:39;96956.97;;;0.17;90.64
43701;BME280;58809;47.984;7.964;2023-03-02T03:00:41;96960.63;;;0.26;91.15
43701;BME280;58809;47.984;7.964;2023-03-02T03:03:49;96955.88;;;0.31;89.86
43701;BME280;58809;47.984;7.964;2023-03-02T03:06:57;96960.41;;;0.17;89.33
43701;BME280;58809;47.984;7.964;2023-03-02T03:10:17;96964.09;;;0.15;90.59
43701;BME280;58809;47.984;7.964;2023-03-02T03:13:19;96961.69;;;0.23;91.08
43701;BME280;58809;47.984;7.964;2023-03-02T03:16:22;96972.91;;;0.24;90.01
43701;BME280;58809;47.984;7.964;2023-03-02T03:19:30;96970.31;;;0.24;90.30
43701;BME280;58809;47.984;7.964;2023-03-02T03:22:34;96971.50;;;0.19;90.57
43701;BME280;58809;47.984;7.964;2023-03-02T03:25:37;96970.19;;;0.25;91.10
43701;BME280;58809;47.984;7.964;2023-03-02T03:28:38;96969.22;;;0.37;90.34
43701;BME280;58809;47.984;7.964;2023-03-02T03:31:40;96959.91;;;0.35;89.59
43701;BME280;58809;47.984;7.964;2023-03-02T03:34:42;96969.72;;;0.31;90.49
43701;BME280;58809;47.984;7.964;2023-03-02T03:37:58;96964.47;;;0.43;90.67
43701;BME280;58809;47.984;7.964;2023-03-02T03:41:00;96964.09;;;0.47;90.05
43701;BME280;58809;47.984;7.964;2023-03-02T03:44:03;96974.03;;;0.53;89.76
43701;BME280;58809;47.984;7.964;2023-03-02T03:47:07;96964.50;;;0.64;89.49
43701;BME280;58809;47.984;7.964;2023-03-02T03:50:09;96966.88;;;0.67;88.38
43701;BME280;58809;47.984;7.964;2023-03-02T03:53:12;96969.47;;;0.67;88.16
43701;BME280;58809;47.984;7.964;2023-03-02T03:56:14;96980.47;;;0.70;87.99
43701;BME280;58809;47.984;7.964;2023-03-02T03:59:19;96969.59;;;0.65;87.41
43701;BME280;58809;47.984;7.964;2023-03-02T04:02:25;96969.41;;;0.57;87.48
43701;BME280;58809;47.984;7.964;2023-03-02T04:05:27;96975.66;;;0.54;87.95
43701;BME280;58809;47.984;7.964;2023-03-02T04:08:34;96978.63;;;0.61;87.94
43701;BME280;58809;47.984;7.964;2023-03-02T04:11:38;96986.13;;;0.43;87.35
43701;BME280;58809;47.984;7.964;2023-03-02T04:14:40;96981.16;;;0.40;88.38
43701;BME280;58809;47.984;7.964;2023-03-02T04:17:42;96994.00;;;0.53;88.67
43701;BME280;58809;47.984;7.964;2023-03-02T04:20:47;96996.72;;;0.63;87.58
43701;BME280;58809;47.984;7.964;2023-03-02T04:23:49;96991.63;;;0.61;87.23
43701;BME280;58809;47.984;7.964;2023-03-02T04:26:50;96995.63;;;0.65;86.84
43701;BME280;58809;47.984;7.964;2023-03-02T04:29:53;97006.63;;;0.69;86.83
43701;BME280;58809;47.984;7.964;2023-03-02T04:32:54;97016.81;;;0.72;86.77
43701;BME280;58809;47.984;7.964;2023-03-02T04:36:00;97020.59;;;0.68;86.49
43701;BME280;58809;47.984;7.964;2023-03-02T04:39:03;97020.59;;;0.68;86.18
43701;BME280;58809;47.984;7.964;2023-03-02T04:42:05;97027.59;;;0.67;86.46
43701;BME280;58809;47.984;7.964;2023-03-02T04:45:07;97017.28;;;0.77;86.51
43701;BME280;58809;47.984;7.964;2023-03-02T04:48:09;97026.03;;;0.76;85.89
43701;BME280;58809;47.984;7.964;2023-03-02T04:51:17;97030.53;;;0.74;85.85
43701;BME280;58809;47.984;7.964;2023-03-02T04:54:22;97037.03;;;0.80;86.04
43701;BME280;58809;47.984;7.964;2023-03-02T04:57:24;97039.03;;;0.76;85.64
43701;BME280;58809;47.984;7.964;2023-03-02T05:00:26;97043.44;;;0.75;85.80
43701;BME280;58809;47.984;7.964;2023-03-02T05:03:29;97037.66;;;0.72;85.42
43701;BME280;58809;47.984;7.964;2023-03-02T05:06:30;97040.47;;;0.69;85.45
43701;BME280;58809;47.984;7.964;2023-03-02T05:09:32;97042.50;;;0.65;85.48
43701;BME280;58809;47.984;7.964;2023-03-02T05:12:34;97044.75;;;0.70;86.09
43701;BME280;58809;47.984;7.964;2023-03-02T05:15:54;97044.50;;;0.73;84.80
43701;BME280;58809;47.984;7.964;2023-03-02T05:18:59;97050.53;;;0.73;85.15
43701;BME280;58809;47.984;7.964;2023-03-02T05:22:01;97057.38;;;0.74;85.29
43701;BME280;58809;47.984;7.964;2023-03-02T05:25:03;97048.88;;;0.72;85.16
43701;BME280;58809;47.984;7.964;2023-03-02T05:28:05;97040.72;;;0.66;84.84
43701;BME280;58809;47.984;7.964;2023-03-02T05:31:06;97045.81;;;0.67;84.68
43701;BME280;58809;47.984;7.964;2023-03-02T05:34:10;97048.09;;;0.61;85.22
43701;BME280;58809;47.984;7.964;2023-03-02T05:37:12;97055.91;;;0.61;85.20
43701;BME280;58809;47.984;7.964;2023-03-02T05:40:17;97055.69;;;0.52;85.17
43701;BME280;58809;47.984;7.964;2023-03-02T05:43:21;97068.69;;;0.52;85.70
43701;BME280;58809;47.984;7.964;2023-03-02T05:46:24;97072.47;;;0.60;85.61
43701;BME280;58809;47.984;7.964;2023-03-02T05:49:25;97069.75;;;0.61;85.28
43701;BME280;58809;47.984;7.964;2023-03-02T05:52:27;97072.94;;;0.65;85.24
43701;BME280;58809;47.984;7.964;2023-03-02T05:55:28;97074.56;;;0.66;85.00
43701;BME280;58809;47.984;7.964;2023-03-02T05:58:30;97076.25;;;0.67;84.86
43701;BME280;58809;47.984;7.964;2023-03-02T06:01:32;97089.25;;;0.67;84.94
43701;BME280;58809;47.984;7.964;2023-03-02T06:04:35;97094.94;;;0.72;84.56
43701;BME280;58809;47.984;7.964;2023-03-02T06:07:43;97084.06;;;0.67;85.02
43701;BME280;58809;47.984;7.964;2023-03-02T06:10:45;97088.19;;;0.69;84.64
43701;BME280;58809;47.984;7.964;2023-03-02T06:13:46;97095.19;;;0.69;84.74
43701;BME280;58809;47.984;7.964;2023-03-02T06:16:48;97090.78;;;0.69;84.83
43701;BME280;58809;47.984;7.964;2023-03-02T06:19:50;97087.13;;;0.72;84.72
43701;BME280;58809;47.984;7.964;2023-03-02T06:22:51;97099.19;;;0.73;85.09
43701;BME280;58809;47.984;7.964;2023-03-02T06:25:53;97104.16;;;0.76;85.03
43701;BME280;58809;47.984;7.964;2023-03-02T06:28:54;97102.25;;;0.78;84.49
43701;BME280;58809;47.984;7.964;2023-03-02T06:31:56;97100.13;;;0.83;83.97
43701;BME280;58809;47.984;7.964;2023-03-02T06:34:58;97091.09;;;0.87;83.86
43701;BME280;58809;47.984;7.964;2023-03-02T06:38:01;97110.03;;;0.89;83.92
43701;BME280;58809;47.984;7.964;2023-03-02T06:41:02;97105.78;;;0.88;83.65
43701;BME280;58809;47.984;7.964;2023-03-02T06:44:04;97107.06;;;0.94;83.84
43701;BME280;58809;47.984;7.964;2023-03-02T06:47:06;97120.91;;;0.94;83.61
43701;BME280;58809;47.984;7.964;2023-03-02T06:50:08;97114.63;;;0.97;84.16
43701;BME280;58809;47.984;7.964;2023-03-02T06:53:10;97116.25;;;1.09;83.86
43701;BME280;58809;47.984;7.964;2023-03-02T06:56:12;97107.97;;;1.15;82.94
43701;BME280;58809;47.984;7.964;2023-03-02T06:59:13;97112.09;;;1.18;82.72
43701;BME280;58809;47.984;7.964;2023-03-02T07:02:15;97113.94;;;1.27;82.31
43701;BME280;58809;47.984;7.964;2023-03-02T07:05:17;97115.16;;;1.23;81.99
43701;BME280;58809;47.984;7.964;2023-03-02T07:08:19;97121.41;;;1.21;82.17
43701;BME280;58809;47.984;7.964;2023-03-02T07:11:20;97118.31;;;1.27;82.74
43701;BME280;58809;47.984;7.964;2023-03-02T07:14:22;97128.19;;;1.44;81.69
43701;BME280;58809;47.984;7.964;2023-03-02T07:17:23;97126.16;;;1.48;81.34
43701;BME280;58809;47.984;7.964;2023-03-02T07:20:25;97127.72;;;1.50;81.18
43701;BME280;58809;47.984;7.964;2023-03-02T07:23:26;97129.69;;;1.58;80.20
43701;BME280;58809;47.984;7.964;2023-03-02T07:26:28;97134.78;;;1.60;79.50
43701;BME280;58809;47.984;7.964;2023-03-02T07:29:29;97122.88;;;1.67;79.75
43701;BME280;58809;47.984;7.964;2023-03-02T07:32:31;97134.06;;;1.79;78.96
43701;BME280;58809;47.984;7.964;2023-03-02T07:35:32;97131.38;;;1.90;78.72
43701;BME280;58809;47.984;7.964;2023-03-02T07:38:35;97133.63;;;1.95;78.16
43701;BME280;58809;47.984;7.964;2023-03-02T07:41:37;97137.50;;;2.00;77.98
43701;BME280;58809;47.984;7.964;2023-03-02T07:44:38;97141.94;;;2.09;77.50
43701;BME280;58809;47.984;7.964;2023-03-02T07:47:40;97137.84;;;2.17;77.19
43701;BME280;58809;47.984;7.964;2023-03-02T07:50:41;97149.00;;;2.19;77.09
43701;BME280;58809;47.984;7.964;2023-03-02T07:53:43;97148.53;;;2.14;76.67
43701;BME280;58809;47.984;7.964;2023-03-02T07:56:44;97156.00;;;2.18;76.73
43701;BME280;58809;47.984;7.964;2023-03-02T07:59:46;97154.91;;;2.21;76.64
43701;BME280;58809;47.984;7.964;2023-03-02T08:02:47;97157.34;;;2.43;76.74
43701;BME280;58809;47.984;7.964;2023-03-02T08:05:49;97159.72;;;2.56;76.07
43701;BME280;58809;47.984;7.964;2023-03-02T08:08:51;97167.19;;;2.70;75.54
43701;BME280;58809;47.984;7.964;2023-03-02T08:11:52;97169.03;;;2.80;75.53
43701;BME280;58809;47.984;7.964;2023-03-02T08:14:54;97155.44;;;2.86;74.92
43701;BME280;58809;47.984;7.964;2023-03-02T08:17:56;97163.53;;;2.93;74.92
43701;BME280;58809;47.984;7.964;2023-03-02T08:20:57;97160.00;;;2.94;74.13
43701;BME280;58809;47.984;7.964;2023-03-02T08:23:59;97172.25;;;3.03;74.21
43701;BME280;58809;47.984;7.964;2023-03-02T08:27:01;97174.72;;;3.04;74.06
43701;BME280;58809;47.984;7.964;2023-03-02T08:30:03;97184.38;;;3.14;74.02
43701;BME280;58809;47.984;7.964;2023-03-02T08:33:05;97179.28;;;3.12;74.06
43701;BME280;58809;47.984;7.964;2023-03-02T08:36:12;97189.25;;;2.87;74.32
43701;BME280;58809;47.984;7.964;2023-03-02T08:39:14;97196.25;;;2.77;74.84
43701;BME280;58809;47.984;7.964;2023-03-02T08:42:16;97188.22;;;2.59;75.22
43701;BME280;58809;47.984;7.964;2023-03-02T08:45:18;97193.06;;;2.74;75.29
43701;BME280;58809;47.984;7.964;2023-03-02T08:48:21;97193.28;;;2.92;74.77
43701;BME280;58809;47.984;7.964;2023-03-02T08:51:24;97192.34;;;3.02;74.68
43701;BME280;58809;47.984;7.964;2023-03-02T08:54:26;97187.63;;;2.86;74.47
43701;BME280;58809;47.984;7.964;2023-03-02T08:57:27;97182.25;;;2.88;74.43
43701;BME280;58809;47.984;7.964;2023-03-02T09:00:29;97184.34;;;3.04;74.62
43701;BME280;58809;47.984;7.964;2023-03-02T09:03:32;97186.56;;;3.08;74.36
43701;BME280;58809;47.984;7.964;2023-03-02T09:06:37;97186.31;;;3.12;74.00
43701;BME280;58809;47.984;7.964;2023-03-02T09:09:39;97184.38;;;3.23;74.15
43701;BME280;58809;47.984;7.964;2023-03-02T09:12:40;97183.31;;;3.36;73.38
43701;BME280;58809;47.984;7.964;2023-03-02T09:15:42;97190.88;;;3.39;73.52
43701;BME280;58809;47.984;7.964;2023-03-02T09:18:46;97187.47;;;3.48;73.07
43701;BME280;58809;47.984;7.964;2023-03-02T09:21:47;97205.78;;;3.58;73.19
43701;BME280;58809;47.984;7.964;2023-03-02T09:24:49;97206.75;;;3.66;72.69
43701;BME280;58809;47.984;7.964;2023-03-02T09:27:51;97203.03;;;3.69;72.58
43701;BME280;58809;47.984;7.964;2023-03-02T09:30:56;97203.97;;;3.78;72.26
43701;BME280;58809;47.984;7.964;2023-03-02T09:33:58;97202.16;;;3.88;71.49
43701;BME280;58809;47.984;7.964;2023-03-02T09:36:59;97206.88;;;3.94;71.38
43701;BME280;58809;47.984;7.964;2023-03-02T09:40:01;97215.25;;;3.88;71.30
43701;BME280;58809;47.984;7.964;2023-03-02T09:46:25;97207.44;;;3.69;71.80
43701;BME280;58809;47.984;7.964;2023-03-02T09:52:40;97222.44;;;3.86;71.09
43701;BME280;58809;47.984;7.964;2023-03-02T09:55:46;97213.63;;;3.77;70.74
43701;BME280;58809;47.984;7.964;2023-03-02T09:58:57;97223.81;;;3.90;70.89
43701;BME280;58809;47.984;7.964;2023-03-02T10:02:29;97225.19;;;4.04;70.43
43701;BME280;58809;47.984;7.964;2023-03-02T10:05:38;97225.88;;;4.06;70.47
43701;BME280;58809;47.984;7.964;2023-03-02T10:08:40;97226.84;;;4.05;70.65
43701;BME280;58809;47.984;7.964;2023-03-02T10:12:04;97228.50;;;4.16;70.32
43701;BME280;58809;47.984;7.964;2023-03-02T10:15:23;97235.22;;;4.18;69.88
43701;BME280;58809;47.984;7.964;2023-03-02T10:18:36;97230.94;;;4.17;69.45
43701;BME280;58809;47.984;7.964;2023-03-02T10:21:45;97240.56;;;4.27;69.45
43701;BME280;58809;47.984;7.964;2023-03-02T10:28:11;97227.03;;;4.51;69.44
43701;BME280;58809;47.984;7.964;2023-03-02T10:31:30;97243.50;;;4.80;68.84
43701;BME280;58809;47.984;7.964;2023-03-02T10:34:34;97235.72;;;4.89;68.03
43701;BME280;58809;47.984;7.964;2023-03-02T10:37:36;97238.34;;;4.89;67.93
43701;BME280;58809;47.984;7.964;2023-03-02T10:40:41;97247.06;;;4.79;68.11
43701;BME280;58809;47.984;7.964;2023-03-02T10:43:45;97240.75;;;4.72;67.65
43701;BME280;58809;47.984;7.964;2023-03-02T10:46:48;97239.66;;;4.75;67.92
43701;BME280;58809;47.984;7.964;2023-03-02T10:49:53;97243.41;;;4.62;67.75
43701;BME280;58809;47.984;7.964;2023-03-02T10:52:55;97242.94;;;4.77;68.48
43701;BME280;58809;47.984;7.964;2023-03-02T10:56:04;97247.78;;;5.09;67.12
43701;BME280;58809;47.984;7.964;2023-03-02T11:02:26;97227.31;;;5.40;66.97
43701;BME280;58809;47.984;7.964;2023-03-02T11:05:35;97242.09;;;5.59;65.95
43701;BME280;58809;47.984;7.964;2023-03-02T11:08:37;97240.63;;;5.57;65.38
43701;BME280;58809;47.984;7.964;2023-03-02T11:11:48;97243.06;;;5.58;65.36
43701;BME280;58809;47.984;7.964;2023-03-02T11:15:13;97235.25;;;5.49;65.55
43701;BME280;58809;47.984;7.964;2023-03-02T11:21:22;97235.44;;;5.65;64.70
43701;BME280;58809;47.984;7.964;2023-03-02T11:24:38;97238.72;;;5.67;64.81
43701;BME280;58809;47.984;7.964;2023-03-02T11:27:43;97240.16;;;5.79;64.59
43701;BME280;58809;47.984;7.964;2023-03-02T11:30:48;97235.97;;;5.87;64.15
43701;BME280;58809;47.984;7.964;2023-03-02T11:34:09;97231.53;;;5.87;63.60
43701;BME280;58809;47.984;7.964;2023-03-02T11:37:35;97228.41;;;6.02;63.49
43701;BME280;58809;47.984;7.964;2023-03-02T11:40:52;97233.16;;;6.24;63.10
43701;BME280;58809;47.984;7.964;2023-03-02T11:43:56;97236.53;;;6.34;63.04
43701;BME280;58809;47.984;7.964;2023-03-02T11:46:59;97233.22;;;6.50;62.68
43701;BME280;58809;47.984;7.964;2023-03-02T11:50:03;97227.88;;;6.68;62.17
43701;BME280;58809;47.984;7.964;2023-03-02T11:53:11;97219.25;;;6.84;61.58
43701;BME280;58809;47.984;7.964;2023-03-02T11:56:15;97239.66;;;6.56;62.27
43701;BME280;58809;47.984;7.964;2023-03-02T11:59:18;97225.25;;;6.16;62.70
43701;BME280;58809;47.984;7.964;2023-03-02T12:02:20;97228.25;;;6.21;62.78
43701;BME280;58809;47.984;7.964;2023-03-02T12:05:26;97225.25;;;6.68;62.12
43701;BME280;58809;47.984;7.964;2023-03-02T12:08:42;97218.00;;;6.62;61.64
43701;BME280;58809;47.984;7.964;2023-03-02T12:11:44;97217.47;;;6.32;62.20
43701;BME280;58809;47.984;7.964;2023-03-02T12:14:46;97219.97;;;6.34;62.55
43701;BME280;58809;47.984;7.964;2023-03-02T12:17:48;97228.34;;;6.38;62.42
43701;BME280;58809;47.984;7.964;2023-03-02T12:21:10;97220.00;;;6.42;62.19
43701;BME280;58809;47.984;7.964;2023-03-02T12:24:32;97224.44;;;6.42;61.38
43701;BME280;58809;47.984;7.964;2023-03-02T12:27:37;97228.44;;;6.28;62.27
43701;BME280;58809;47.984;7.964;2023-03-02T12:30:40;97225.38;;;6.14;62.79
43701;BME280;58809;47.984;7.964;2023-03-02T12:33:45;97229.56;;;5.99;62.90
43701;BME280;58809;47.984;7.964;2023-03-02T12:36:52;97226.69;;;6.10;62.64
43701;BME280;58809;47.984;7.964;2023-03-02T12:43:30;97234.06;;;6.33;62.04
43701;BME280;58809;47.984;7.964;2023-03-02T12:46:34;97222.47;;;6.18;62.67
43701;BME280;58809;47.984;7.964;2023-03-02T12:49:46;97232.47;;;6.14;62.81
43701;BME280;58809;47.984;7.964;2023-03-02T12:52:59;97226.81;;;5.91;63.53
43701;BME280;58809;47.984;7.964;2023-03-02T12:56:01;97226.13;;;5.89;63.53
43701;BME280;58809;47.984;7.964;2023-03-02T12:59:03;97219.56;;;6.03;63.03
43701;BME280;58809;47.984;7.964;2023-03-02T13:02:18;97213.59;;;6.19;63.16
43701;BME280;58809;47.984;7.964;2023-03-02T13:05:26;97217.63;;;6.31;62.54
43701;BME280;58809;47.984;7.964;2023-03-02T13:08:28;97213.66;;;6.53;62.56
43701;BME280;58809;47.984;7.964;2023-03-02T13:11:33;97214.03;;;6.58;61.96
43701;BME280;58809;47.984;7.964;2023-03-02T13:14:39;97210.66;;;6.48;62.49
43701;BME280;58809;47.984;7.964;2023-03-02T13:17:43;97200.66;;;6.51;62.70
43701;BME280;58809;47.984;7.964;2023-03-02T13:20:45;97202.19;;;6.54;62.53
43701;BME280;58809;47.984;7.964;2023-03-02T13:23:49;97210.25;;;6.61;62.36
43701;BME280;58809;47.984;7.964;2023-03-02T13:27:16;97221.75;;;6.33;62.19
43701;BME280;58809;47.984;7.964;2023-03-02T13:30:27;97208.59;;;6.33;63.00
43701;BME280;58809;47.984;7.964;2023-03-02T13:33:32;97213.72;;;6.35;63.24
43701;BME280;58809;47.984;7.964;2023-03-02T13:36:35;97216.75;;;6.04;63.50
43701;BME280;58809;47.984;7.964;2023-03-02T13:39:38;97215.16;;;6.29;63.41
43701;BME280;58809;47.984;7.964;2023-03-02T13:42:40;97211.41;;;6.32;63.73
43701;BME280;58809;47.984;7.964;2023-03-02T13:45:50;97210.41;;;6.33;63.45
43701;BME280;58809;47.984;7.964;2023-03-02T13:49:01;97210.59;;;6.13;63.65
43701;BME280;58809;47.984;7.964;2023-03-02T13:52:26;97204.22;;;6.16;63.78
43701;BME280;58809;47.984;7.964;2023-03-02T13:55:30;97209.88;;;6.29;63.68
43701;BME280;58809;47.984;7.964;2023-03-02T13:58:35;97213.19;;;6.31;63.58
43701;BME280;58809;47.984;7.964;2023-03-02T14:01:38;97216.53;;;6.15;63.42
43701;BME280;58809;47.984;7.964;2023-03-02T14:04:41;97214.34;;;5.75;64.74
43701;BME280;58809;47.984;7.964;2023-03-02T14:07:43;97214.66;;;5.72;64.82
43701;BME280;58809;47.984;7.964;2023-03-02T14:10:47;97205.28;;;5.87;64.71
43701;BME280;58809;47.984;7.964;2023-03-02T14:13:53;97214.50;;;5.91;64.57
43701;BME280;58809;47.984;7.964;2023-03-02T14:16:55;97217.22;;;6.00;64.18
43701;BME280;58809;47.984;7.964;2023-03-02T14:19:57;97222.38;;;6.09;64.73
43701;BME280;58809;47.984;7.964;2023-03-02T14:22:58;97213.53;;;6.10;64.15
43701;BME280;58809;47.984;7.964;2023-03-02T14:26:20;97213.50;;;6.28;64.11
43701;BME280;58809;47.984;7.964;2023-03-02T14:29:27;97210.66;;;6.48;63.35
43701;BME280;58809;47.984;7.964;2023-03-02T14:32:29;97209.66;;;6.67;62.91
43701;BME280;58809;47.984;7.964;2023-03-02T14:35:31;97205.66;;;6.63;62.53
43701;BME280;58809;47.984;7.964;2023-03-02T14:38:33;97212.22;;;6.59;62.80
43701;BME280;58809;47.984;7.964;2023-03-02T14:41:35;97218.28;;;6.59;62.81
43701;BME280;58809;47.984;7.964;2023-03-02T14:44:53;97211.59;;;6.39;63.02
43701;BME280;58809;47.984;7.964;2023-03-02T14:47:55;97211.84;;;6.53;62.98
43701;BME280;58809;47.984;7.964;2023-03-02T14:50:57;97215.78;;;6.23;63.13
43701;BME280;58809;47.984;7.964;2023-03-02T14:54:04;97213.31;;;6.04;63.65
43701;BME280;58809;47.984;7.964;2023-03-02T14:57:19;97206.78;;;5.90;64.25
43701;BME280;58809;47.984;7.964;2023-03-02T15:00:22;97209.50;;;5.98;64.44
43701;BME280;58809;47.984;7.964;2023-03-02T15:03:23;97209.91;;;6.11;64.22
43701;BME280;58809;47.984;7.964;2023-03-02T15:06:29;97206.78;;;6.08;64.19
43701;BME280;58809;47.984;7.964;2023-03-02T15:09:32;97208.47;;;6.17;63.84
43701;BME280;58809;47.984;7.964;2023-03-02T15:12:33;97214.72;;;6.16;63.74
43701;BME280;58809;47.984;7.964;2023-03-02T15:15:36;97213.91;;;6.15;64.50
43701;BME280;58809;47.984;7.964;2023-03-02T15:18:38;97220.56;;;6.10;64.19
43701;BME280;58809;47.984;7.964;2023-03-02T15:21:40;97211.06;;;6.09;63.84
43701;BME280;58809;47.984;7.964;2023-03-02T15:24:45;97219.13;;;6.33;63.28
43701;BME280;58809;47.984;7.964;2023-03-02T15:27:46;97215.44;;;6.26;63.72
43701;BME280;58809;47.984;7.964;2023-03-02T15:30:49;97218.16;;;6.34;63.20
43701;BME280;58809;47.984;7.964;2023-03-02T15:33:50;97218.16;;;6.34;63.32
43701;BME280;58809;47.984;7.964;2023-03-02T15:36:52;97217.66;;;6.13;63.29
43701;BME280;58809;47.984;7.964;2023-03-02T15:39:54;97225.25;;;6.16;63.27
43701;BME280;58809;47.984;7.964;2023-03-02T15:42:56;97227.97;;;6.06;63.26
43701;BME280;58809;47.984;7.964;2023-03-02T15:45:59;97234.81;;;5.99;64.15
43701;BME280;58809;47.984;7.964;2023-03-02T15:49:02;97237.25;;;6.01;63.74
43701;BME280;58809;47.984;7.964;2023-03-02T15:52:03;97235.47;;;6.01;64.03
43701;BME280;58809;47.984;7.964;2023-03-02T15:55:05;97241.16;;;5.96;63.82
43701;BME280;58809;47.984;7.964;2023-03-02T15:58:07;97233.94;;;5.98;63.68
43701;BME280;58809;47.984;7.964;2023-03-02T16:01:10;97240.88;;;6.00;63.61
43701;BME280;58809;47.984;7.964;2023-03-02T16:04:12;97242.03;;;5.87;63.85
43701;BME280;58809;47.984;7.964;2023-03-02T16:07:13;97245.41;;;5.62;64.49
43701;BME280;58809;47.984;7.964;2023-03-02T16:10:15;97244.06;;;5.57;64.91
43701;BME280;58809;47.984;7.964;2023-03-02T16:13:18;97238.81;;;5.57;65.33
43701;BME280;58809;47.984;7.964;2023-03-02T16:16:20;97244.19;;;5.56;64.70
43701;BME280;58809;47.984;7.964;2023-03-02T16:19:22;97254.00;;;5.36;65.40
43701;BME280;58809;47.984;7.964;2023-03-02T16:22:23;97254.94;;;5.07;66.12
43701;BME280;58809;47.984;7.964;2023-03-02T16:25:25;97255.47;;;4.93;66.79
43701;BME280;58809;47.984;7.964;2023-03-02T16:28:26;97250.94;;;4.75;67.54
43701;BME280;58809;47.984;7.964;2023-03-02T16:31:29;97258.56;;;4.69;67.90
43701;BME280;58809;47.984;7.964;2023-03-02T16:34:33;97256.66;;;4.61;68.10
43701;BME280;58809;47.984;7.964;2023-03-02T16:37:35;97266.19;;;4.52;68.59
43701;BME280;58809;47.984;7.964;2023-03-02T16:40:37;97264.53;;;4.51;69.16
43701;BME280;58809;47.984;7.964;2023-03-02T16:43:44;97267.19;;;4.41;69.12
43701;BME280;58809;47.984;7.964;2023-03-02T16:46:46;97268.25;;;4.49;69.56
43701;BME280;58809;47.984;7.964;2023-03-02T16:49:47;97276.97;;;4.49;69.85
43701;BME280;58809;47.984;7.964;2023-03-02T16:52:49;97272.81;;;4.47;69.81
43701;BME280;58809;47.984;7.964;2023-03-02T16:55:50;97278.63;;;4.40;69.40
43701;BME280;58809;47.984;7.964;2023-03-02T16:58:52;97282.78;;;4.33;69.45